sensor_id;sensor_type;location;lat;lon;timestamp;temperature;humidity
17599;DHT22;8918;52.092;5.232;2023-06-26T13:16:28;23.40;99.90
17599;DHT22;8918;52.092;5.232;2023-06-26T13:18:54;23.30;99.90
17599;DHT22;8918;52.092;5.232;2023-06-26T13:21:19;23.30;99.90
17599;DHT22;8918;52.092;5.232;2023-06-26T13:23:45;23.60;99.90
17599;DHT22;8918;52.092;5.232;2023-06-26T13:26:11;23.70;99.90
17599;DHT22;8918;52.092;5.232;2023-06-26T13:28:37;23.90;99.90
17599;DHT22;8918;52.092;5.232;2023-06-26T13:31:03;23.90;99.90
17599;DHT22;8918;52.092;5.232;2023-06-26T13:33:30;23.90;99.90
17599;DHT22;8918;52.092;5.232;2023-06-26T13:35:56;23.70;99.90
17599;DHT22;8918;52.092;5.232;2023-06-26T13:38:22;23.40;99.90
17599;DHT22;8918;52.092;5.232;2023-06-26T13:40:51;23.30;99.90
17599;DHT22;8918;52.092;5.232;2023-06-26T13:43:17;23.40;99.90
17599;DHT22;8918;52.092;5.232;2023-06-26T13:45:42;23.60;99.90
17599;DHT22;8918;52.092;5.232;2023-06-26T13:48:08;23.60;99.90
17599;DHT22;8918;52.092;5.232;2023-06-26T13:50:34;23.90;99.90
17599;DHT22;8918;52.092;5.232;2023-06-26T13:52:59;24.00;99.90
17599;DHT22;8918;52.092;5.232;2023-06-26T13:55:25;24.00;99.90
17599;DHT22;8918;52.092;5.232;2023-06-26T13:57:50;24.30;99.90
17599;DHT22;8918;52.092;5.232;2023-06-26T14:00:16;24.20;99.90
17599;DHT22;8918;52.092;5.232;2023-06-26T14:02:45;24.30;99.90
17599;DHT22;8918;52.092;5.232;2023-06-26T14:05:11;24.20;99.90
17599;DHT22;8918;52.092;5.232;2023-06-26T14:07:37;24.30;99.90
17599;DHT22;8918;52.092;5.232;2023-06-26T14:10:04;24.30;99.90
17599;DHT22;8918;52.092;5.232;2023-06-26T14:12:31;24.40;99.90
17599;DHT22;8918;52.092;5.232;2023-06-26T14:14:57;24.40;99.90
17599;DHT22;8918;52.092;5.232;2023-06-26T14:17:23;24.10;99.90
17599;DHT22;8918;52.092;5.232;2023-06-26T14:19:51;23.90;99.90
17599;DHT22;8918;52.092;5.232;2023-06-26T14:22:17;23.70;99.90
17599;DHT22;8918;52.092;5.232;2023-06-26T14:24:43;23.80;99.90
17599;DHT22;8918;52.092;5.232;2023-06-26T14:27:08;23.90;99.90
17599;DHT22;8918;52.092;5.232;2023-06-26T14:29:36;23.90;99.90
17599;DHT22;8918;52.092;5.232;2023-06-26T14:32:02;24.20;99.90
17599;DHT22;8918;52.092;5.232;2023-06-26T14:34:27;24.20;99.90
17599;DHT22;8918;52.092;5.232;2023-06-26T14:36:53;24.40;99.90
17599;DHT22;8918;52.092;5.232;2023-06-26T14:39:19;24.40;99.90
17599;DHT22;8918;52.092;5.232;2023-06-26T14:41:44;24.50;99.90
17599;DHT22;8918;52.092;5.232;2023-06-26T14:44:10;24.40;99.90
17599;DHT22;8918;52.092;5.232;2023-06-26T14:46:36;24.60;99.90
17599;DHT22;8918;52.092;5.232;2023-06-26T14:49:02;24.70;99.90
17599;DHT22;8918;52.092;5.232;2023-06-26T14:51:28;24.90;99.90
17599;DHT22;8918;52.092;5.232;2023-06-26T14:53:54;24.60;99.90
17599;DHT22;8918;52.092;5.232;2023-06-26T14:56:19;24.30;99.90
17599;DHT22;8918;52.092;5.232;2023-06-26T14:58:45;24.10;99.90
17599;DHT22;8918;52.092;5.232;2023-06-26T15:01:12;24.00;99.90
17599;DHT22;8918;52.092;5.232;2023-06-26T15:03:41;24.00;99.90
17599;DHT22;8918;52.092;5.232;2023-06-26T15:06:06;24.20;99.90
17599;DHT22;8918;52.092;5.232;2023-06-26T15:08:32;24.60;99.90
17599;DHT22;8918;52.092;5.232;2023-06-26T15:10:57;24.70;99.90
17599;DHT22;8918;52.092;5.232;2023-06-26T15:13:23;24.80;99.90
17599;DHT22;8918;52.092;5.232;2023-06-26T15:15:48;24.50;99.90
17599;DHT22;8918;52.092;5.232;2023-06-26T15:18:15;24.00;99.90
17599;DHT22;8918;52.092;5.232;2023-06-26T15:20:40;24.00;99.90
17599;DHT22;8918;52.092;5.232;2023-06-26T15:23:06;24.30;99.90
17599;DHT22;8918;52.092;5.232;2023-06-26T15:25:31;24.70;99.90
17599;DHT22;8918;52.092;5.232;2023-06-26T15:28:00;24.90;99.90
17599;DHT22;8918;52.092;5.232;2023-06-26T15:30:26;24.80;99.90
17599;DHT22;8918;52.092;5.232;2023-06-26T15:32:51;24.80;99.90
17599;DHT22;8918;52.092;5.232;2023-06-26T15:35:17;24.80;99.90
17599;DHT22;8918;52.092;5.232;2023-06-26T15:37:42;24.50;99.90
17599;DHT22;8918;52.092;5.232;2023-06-26T15:40:08;24.00;99.90
17599;DHT22;8918;52.092;5.232;2023-06-26T15:42:45;23.40;99.90
17599;DHT22;8918;52.092;5.232;2023-06-26T15:45:11;23.40;99.90
17599;DHT22;8918;52.092;5.232;2023-06-26T15:47:36;23.50;99.90
17599;DHT22;8918;52.092;5.232;2023-06-26T15:50:02;23.80;99.90
17599;DHT22;8918;52.092;5.232;2023-06-26T15:52:28;24.20;99.90
17599;DHT22;8918;52.092;5.232;2023-06-26T15:54:53;24.50;99.90
17599;DHT22;8918;52.092;5.232;2023-06-26T15:57:19;24.30;99.90
17599;DHT22;8918;52.092;5.232;2023-06-26T15:59:44;24.40;99.90
17599;DHT22;8918;52.092;5.232;2023-06-26T16:02:10;24.50;99.90
17599;DHT22;8918;52.092;5.232;2023-06-26T16:04:35;24.80;99.90
17599;DHT22;8918;52.092;5.232;2023-06-26T16:07:01;25.10;99.90
17599;DHT22;8918;52.092;5.232;2023-06-26T16:09:27;25.20;99.90
17599;DHT22;8918;52.092;5.232;2023-06-26T16:11:52;24.80;99.90
17599;DHT22;8918;52.092;5.232;2023-06-26T16:14:18;24.70;99.90
17599;DHT22;8918;52.092;5.232;2023-06-26T16:16:43;25.10;99.90
17599;DHT22;8918;52.092;5.232;2023-06-26T16:19:09;25.60;99.90
17599;DHT22;8918;52.092;5.232;2023-06-26T16:21:35;25.90;99.90
17599;DHT22;8918;52.092;5.232;2023-06-26T16:24:00;26.10;99.90
17599;DHT22;8918;52.092;5.232;2023-06-26T16:26:26;25.90;99.90
17599;DHT22;8918;52.092;5.232;2023-06-26T16:28:52;25.80;99.90
17599;DHT22;8918;52.092;5.232;2023-06-26T16:31:17;25.90;99.90
17599;DHT22;8918;52.092;5.232;2023-06-26T16:33:43;26.20;99.90
17599;DHT22;8918;52.092;5.232;2023-06-26T16:36:09;26.30;99.90
17599;DHT22;8918;52.092;5.232;2023-06-26T16:38:34;26.00;99.90
17599;DHT22;8918;52.092;5.232;2023-06-26T16:41:03;26.20;99.90
17599;DHT22;8918;52.092;5.232;2023-06-26T16:43:28;26.30;99.90
17599;DHT22;8918;52.092;5.232;2023-06-26T16:45:54;26.30;99.90
17599;DHT22;8918;52.092;5.232;2023-06-26T16:48:19;26.40;99.90
17599;DHT22;8918;52.092;5.232;2023-06-26T16:50:45;26.50;99.90
17599;DHT22;8918;52.092;5.232;2023-06-26T16:53:12;26.40;99.90
17599;DHT22;8918;52.092;5.232;2023-06-26T16:55:37;26.20;99.90
17599;DHT22;8918;52.092;5.232;2023-06-26T16:58:03;25.90;99.90
17599;DHT22;8918;52.092;5.232;2023-06-26T17:00:29;25.70;99.90
17599;DHT22;8918;52.092;5.232;2023-06-26T17:02:54;25.90;99.90
17599;DHT22;8918;52.092;5.232;2023-06-26T17:05:20;26.20;99.90
17599;DHT22;8918;52.092;5.232;2023-06-26T17:07:45;26.40;99.90
17599;DHT22;8918;52.092;5.232;2023-06-26T17:10:11;26.50;99.90
17599;DHT22;8918;52.092;5.232;2023-06-26T17:12:40;26.50;99.90
17599;DHT22;8918;52.092;5.232;2023-06-26T17:15:07;26.00;99.90
17599;DHT22;8918;52.092;5.232;2023-06-26T17:17:33;25.70;99.90
17599;DHT22;8918;52.092;5.232;2023-06-26T17:19:58;25.70;99.90
17599;DHT22;8918;52.092;5.232;2023-06-26T17:22:24;25.40;99.90
17599;DHT22;8918;52.092;5.232;2023-06-26T17:24:49;24.90;99.90
17599;DHT22;8918;52.092;5.232;2023-06-26T17:27:15;24.30;99.90
17599;DHT22;8918;52.092;5.232;2023-06-26T17:29:46;23.80;99.90
17599;DHT22;8918;52.092;5.232;2023-06-26T17:32:11;23.70;99.90
17599;DHT22;8918;52.092;5.232;2023-06-26T17:34:37;23.80;99.90
17599;DHT22;8918;52.092;5.232;2023-06-26T17:37:04;24.00;99.90
17599;DHT22;8918;52.092;5.232;2023-06-26T17:39:30;23.90;99.90
17599;DHT22;8918;52.092;5.232;2023-06-26T17:41:56;23.70;99.90
17599;DHT22;8918;52.092;5.232;2023-06-26T17:44:22;23.50;99.90
17599;DHT22;8918;52.092;5.232;2023-06-26T17:46:52;23.30;99.90
17599;DHT22;8918;52.092;5.232;2023-06-26T17:49:18;23.20;99.90
17599;DHT22;8918;52.092;5.232;2023-06-26T17:51:43;23.20;99.90
17599;DHT22;8918;52.092;5.232;2023-06-26T17:54:09;23.00;99.90
17599;DHT22;8918;52.092;5.232;2023-06-26T17:56:35;23.00;99.90
17599;DHT22;8918;52.092;5.232;2023-06-26T17:59:00;22.70;99.90
17599;DHT22;8918;52.092;5.232;2023-06-26T18:01:26;22.70;99.90
17599;DHT22;8918;52.092;5.232;2023-06-26T18:03:51;22.70;99.90
17599;DHT22;8918;52.092;5.232;2023-06-26T18:06:17;22.60;99.90
17599;DHT22;8918;52.092;5.232;2023-06-26T18:08:42;22.60;99.90
17599;DHT22;8918;52.092;5.232;2023-06-26T18:11:08;22.50;99.90
17599;DHT22;8918;52.092;5.232;2023-06-26T18:13:34;22.50;99.90
17599;DHT22;8918;52.092;5.232;2023-06-26T18:15:59;22.30;99.90
17599;DHT22;8918;52.092;5.232;2023-06-26T18:18:25;22.20;99.90
17599;DHT22;8918;52.092;5.232;2023-06-26T18:20:51;22.20;99.90
17599;DHT22;8918;52.092;5.232;2023-06-26T18:23:16;22.10;99.90
17599;DHT22;8918;52.092;5.232;2023-06-26T18:25:42;22.00;99.90
17599;DHT22;8918;52.092;5.232;2023-06-26T18:28:07;22.00;99.90
17599;DHT22;8918;52.092;5.232;2023-06-26T18:30:33;22.00;99.90
17599;DHT22;8918;52.092;5.232;2023-06-26T18:32:58;22.10;99.90
17599;DHT22;8918;52.092;5.232;2023-06-26T18:35:24;22.10;99.90
17599;DHT22;8918;52.092;5.232;2023-06-26T18:37:50;22.00;99.90
17599;DHT22;8918;52.092;5.232;2023-06-26T18:40:15;22.00;99.90
17599;DHT22;8918;52.092;5.232;2023-06-26T18:42:42;21.90;99.90
17599;DHT22;8918;52.092;5.232;2023-06-26T18:45:10;21.90;99.90
17599;DHT22;8918;52.092;5.232;2023-06-26T18:47:35;21.90;99.90
17599;DHT22;8918;52.092;5.232;2023-06-26T18:50:01;21.90;99.90
17599;DHT22;8918;52.092;5.232;2023-06-26T18:52:28;21.80;99.90
17599;DHT22;8918;52.092;5.232;2023-06-26T18:54:54;21.70;99.90
17599;DHT22;8918;52.092;5.232;2023-06-26T18:57:19;21.70;99.90
17599;DHT22;8918;52.092;5.232;2023-06-26T18:59:45;21.60;99.90
17599;DHT22;8918;52.092;5.232;2023-06-26T19:02:10;21.50;99.90
17599;DHT22;8918;52.092;5.232;2023-06-26T19:04:36;21.50;99.90
17599;DHT22;8918;52.092;5.232;2023-06-26T19:07:01;21.50;99.90
17599;DHT22;8918;52.092;5.232;2023-06-26T19:09:27;21.50;99.90
17599;DHT22;8918;52.092;5.232;2023-06-26T19:11:53;21.40;99.90
17599;DHT22;8918;52.092;5.232;2023-06-26T19:14:18;21.40;99.90
17599;DHT22;8918;52.092;5.232;2023-06-26T19:16:44;21.30;99.90
17599;DHT22;8918;52.092;5.232;2023-06-26T19:19:10;21.20;99.90
17599;DHT22;8918;52.092;5.232;2023-06-26T19:21:35;21.10;99.90
17599;DHT22;8918;52.092;5.232;2023-06-26T19:24:01;21.10;99.90
17599;DHT22;8918;52.092;5.232;2023-06-26T19:26:27;21.10;99.90
17599;DHT22;8918;52.092;5.232;2023-06-26T19:28:52;21.00;99.90
17599;DHT22;8918;52.092;5.232;2023-06-26T19:31:18;20.90;99.90
17599;DHT22;8918;52.092;5.232;2023-06-26T19:33:43;20.80;99.90
17599;DHT22;8918;52.092;5.232;2023-06-26T19:36:09;20.80;99.90
17599;DHT22;8918;52.092;5.232;2023-06-26T19:38:35;20.80;99.90
17599;DHT22;8918;52.092;5.232;2023-06-26T19:41:00;20.80;99.90
17599;DHT22;8918;52.092;5.232;2023-06-26T19:43:26;20.70;99.90
17599;DHT22;8918;52.092;5.232;2023-06-26T19:45:52;20.70;99.90
17599;DHT22;8918;52.092;5.232;2023-06-26T19:48:17;20.70;99.90
17599;DHT22;8918;52.092;5.232;2023-06-26T19:50:43;20.60;99.90
17599;DHT22;8918;52.092;5.232;2023-06-26T19:53:08;20.60;99.90
17599;DHT22;8918;52.092;5.232;2023-06-26T19:55:34;20.50;99.90
17599;DHT22;8918;52.092;5.232;2023-06-26T19:57:59;20.50;99.90
17599;DHT22;8918;52.092;5.232;2023-06-26T20:00:25;20.50;99.90
17599;DHT22;8918;52.092;5.232;2023-06-26T20:02:51;20.40;99.90
17599;DHT22;8918;52.092;5.232;2023-06-26T20:05:18;20.40;99.90
17599;DHT22;8918;52.092;5.232;2023-06-26T20:07:43;20.40;99.90
17599;DHT22;8918;52.092;5.232;2023-06-26T20:10:10;20.30;99.90
17599;DHT22;8918;52.092;5.232;2023-06-26T20:12:35;20.30;99.90
17599;DHT22;8918;52.092;5.232;2023-06-26T20:15:01;20.20;99.90
17599;DHT22;8918;52.092;5.232;2023-06-26T20:17:27;20.10;99.90
17599;DHT22;8918;52.092;5.232;2023-06-26T20:19:53;20.10;99.90
17599;DHT22;8918;52.092;5.232;2023-06-26T20:22:18;20.00;99.90
17599;DHT22;8918;52.092;5.232;2023-06-26T20:24:44;19.90;99.90
17599;DHT22;8918;52.092;5.232;2023-06-26T20:27:09;19.90;99.90
17599;DHT22;8918;52.092;5.232;2023-06-26T20:29:35;19.90;99.90
17599;DHT22;8918;52.092;5.232;2023-06-26T20:32:01;19.90;99.90
17599;DHT22;8918;52.092;5.232;2023-06-26T20:34:27;19.90;99.90
17599;DHT22;8918;52.092;5.232;2023-06-26T20:36:52;19.80;99.90
17599;DHT22;8918;52.092;5.232;2023-06-26T20:39:18;19.80;99.90
17599;DHT22;8918;52.092;5.232;2023-06-26T20:41:45;19.70;99.90
17599;DHT22;8918;52.092;5.232;2023-06-26T20:44:10;19.70;99.90
17599;DHT22;8918;52.092;5.232;2023-06-26T20:46:36;19.60;99.90
17599;DHT22;8918;52.092;5.232;2023-06-26T20:49:03;19.60;99.90
17599;DHT22;8918;52.092;5.232;2023-06-26T20:51:29;19.70;99.90
17599;DHT22;8918;52.092;5.232;2023-06-26T20:53:55;19.60;99.90
17599;DHT22;8918;52.092;5.232;2023-06-26T20:56:22;19.70;99.90
17599;DHT22;8918;52.092;5.232;2023-06-26T20:58:49;19.70;99.90
17599;DHT22;8918;52.092;5.232;2023-06-26T21:01:16;19.70;99.90
17599;DHT22;8918;52.092;5.232;2023-06-26T21:03:41;19.60;99.90
17599;DHT22;8918;52.092;5.232;2023-06-26T21:06:07;19.60;99.90
17599;DHT22;8918;52.092;5.232;2023-06-26T21:08:33;19.60;99.90
17599;DHT22;8918;52.092;5.232;2023-06-26T21:10:58;19.50;99.90
17599;DHT22;8918;52.092;5.232;2023-06-26T21:13:24;19.50;99.90
17599;DHT22;8918;52.092;5.232;2023-06-26T21:15:49;19.50;99.90
17599;DHT22;8918;52.092;5.232;2023-06-26T21:18:16;19.60;99.90
17599;DHT22;8918;52.092;5.232;2023-06-26T21:20:42;19.60;99.90
17599;DHT22;8918;52.092;5.232;2023-06-26T21:23:07;19.60;99.90
17599;DHT22;8918;52.092;5.232;2023-06-26T21:25:33;19.60;99.90
17599;DHT22;8918;52.092;5.232;2023-06-26T21:27:58;19.50;99.90
17599;DHT22;8918;52.092;5.232;2023-06-26T21:30:24;19.50;99.90
17599;DHT22;8918;52.092;5.232;2023-06-26T21:32:49;19.50;99.90
17599;DHT22;8918;52.092;5.232;2023-06-26T21:35:16;19.50;99.90
17599;DHT22;8918;52.092;5.232;2023-06-26T21:37:42;19.40;99.90
17599;DHT22;8918;52.092;5.232;2023-06-26T21:40:08;19.40;99.90
17599;DHT22;8918;52.092;5.232;2023-06-26T21:42:33;19.20;99.90
17599;DHT22;8918;52.092;5.232;2023-06-26T21:44:59;19.20;99.90
17599;DHT22;8918;52.092;5.232;2023-06-26T21:47:25;19.20;99.90
17599;DHT22;8918;52.092;5.232;2023-06-26T21:49:50;19.20;99.90
17599;DHT22;8918;52.092;5.232;2023-06-26T21:52:16;19.20;99.90
17599;DHT22;8918;52.092;5.232;2023-06-26T21:54:42;19.10;99.90
17599;DHT22;8918;52.092;5.232;2023-06-26T21:57:07;19.20;99.90
17599;DHT22;8918;52.092;5.232;2023-06-26T21:59:34;19.20;99.90
17599;DHT22;8918;52.092;5.232;2023-06-26T22:02:00;19.10;99.90
17599;DHT22;8918;52.092;5.232;2023-06-26T22:04:26;19.00;99.90
17599;DHT22;8918;52.092;5.232;2023-06-26T22:06:51;19.00;99.90
17599;DHT22;8918;52.092;5.232;2023-06-26T22:09:17;19.00;99.90
17599;DHT22;8918;52.092;5.232;2023-06-26T22:11:42;18.90;99.90
17599;DHT22;8918;52.092;5.232;2023-06-26T22:14:09;18.90;99.90
17599;DHT22;8918;52.092;5.232;2023-06-26T22:16:34;18.90;99.90
17599;DHT22;8918;52.092;5.232;2023-06-26T22:19:00;18.80;99.90
17599;DHT22;8918;52.092;5.232;2023-06-26T22:21:26;18.60;99.90
17599;DHT22;8918;52.092;5.232;2023-06-26T22:23:51;18.60;99.90
17599;DHT22;8918;52.092;5.232;2023-06-26T22:26:18;18.50;99.90
17599;DHT22;8918;52.092;5.232;2023-06-26T22:28:43;18.50;99.90
17599;DHT22;8918;52.092;5.232;2023-06-26T22:31:09;18.50;99.90
17599;DHT22;8918;52.092;5.232;2023-06-26T22:33:34;18.40;99.90
17599;DHT22;8918;52.092;5.232;2023-06-26T22:36:00;18.30;99.90
17599;DHT22;8918;52.092;5.232;2023-06-26T22:38:25;18.40;99.90
17599;DHT22;8918;52.092;5.232;2023-06-26T22:40:51;18.40;99.90
17599;DHT22;8918;52.092;5.232;2023-06-26T22:43:16;18.30;99.90
17599;DHT22;8918;52.092;5.232;2023-06-26T22:45:42;18.30;99.90
17599;DHT22;8918;52.092;5.232;2023-06-26T22:48:08;18.40;99.90
17599;DHT22;8918;52.092;5.232;2023-06-26T22:50:34;18.30;99.90
17599;DHT22;8918;52.092;5.232;2023-06-26T22:52:59;18.30;99.90
17599;DHT22;8918;52.092;5.232;2023-06-26T22:55:25;18.20;99.90
17599;DHT22;8918;52.092;5.232;2023-06-26T22:57:51;18.10;99.90
17599;DHT22;8918;52.092;5.232;2023-06-26T23:00:17;18.10;99.90
17599;DHT22;8918;52.092;5.232;2023-06-26T23:02:43;18.10;99.90
17599;DHT22;8918;52.092;5.232;2023-06-26T23:05:09;18.10;99.90
17599;DHT22;8918;52.092;5.232;2023-06-26T23:07:35;18.00;99.90
17599;DHT22;8918;52.092;5.232;2023-06-26T23:10:04;18.00;99.90
17599;DHT22;8918;52.092;5.232;2023-06-26T23:12:31;17.90;99.90
17599;DHT22;8918;52.092;5.232;2023-06-26T23:14:57;18.00;99.90
17599;DHT22;8918;52.092;5.232;2023-06-26T23:17:22;18.00;99.90
17599;DHT22;8918;52.092;5.232;2023-06-26T23:19:48;18.00;99.90
17599;DHT22;8918;52.092;5.232;2023-06-26T23:22:14;18.00;99.90
17599;DHT22;8918;52.092;5.232;2023-06-26T23:24:40;18.00;99.90
17599;DHT22;8918;52.092;5.232;2023-06-26T23:27:06;18.00;99.90
17599;DHT22;8918;52.092;5.232;2023-06-26T23:29:34;17.90;99.90
17599;DHT22;8918;52.092;5.232;2023-06-26T23:32:00;17.90;99.90
17599;DHT22;8918;52.092;5.232;2023-06-26T23:34:25;17.90;99.90
17599;DHT22;8918;52.092;5.232;2023-06-26T23:36:51;17.90;99.90
17599;DHT22;8918;52.092;5.232;2023-06-26T23:39:20;18.00;99.90
17599;DHT22;8918;52.092;5.232;2023-06-26T23:41:46;18.00;99.90
17599;DHT22;8918;52.092;5.232;2023-06-26T23:44:16;17.90;99.90
17599;DHT22;8918;52.092;5.232;2023-06-26T23:46:45;17.90;99.90
17599;DHT22;8918;52.092;5.232;2023-06-26T23:49:11;17.90;99.90
17599;DHT22;8918;52.092;5.232;2023-06-26T23:51:37;17.90;99.90
17599;DHT22;8918;52.092;5.232;2023-06-26T23:54:03;17.80;99.90
17599;DHT22;8918;52.092;5.232;2023-06-26T23:56:30;17.90;99.90
17599;DHT22;8918;52.092;5.232;2023-06-26T23:58:56;17.80;99.90
